sensor_id;sensor_type;location;lat;lon;timestamp;temperature;humidity
28171;DHT22;15458;53.346;-1.688;2023-04-12T00:01:37;5.60;99.90
28171;DHT22;15458;53.346;-1.688;2023-04-12T00:04:07;5.60;99.90
28171;DHT22;15458;53.346;-1.688;2023-04-12T00:06:34;5.50;99.90
28171;DHT22;15458;53.346;-1.688;2023-04-12T00:09:01;5.50;99.90
28171;DHT22;15458;53.346;-1.688;2023-04-12T00:11:27;5.50;99.90
28171;DHT22;15458;53.346;-1.688;2023-04-12T00:13:54;5.40;99.90
28171;DHT22;15458;53.346;-1.688;2023-04-12T00:16:20;5.30;99.90
28171;DHT22;15458;53.346;-1.688;2023-04-12T00:18:45;5.20;99.90
28171;DHT22;15458;53.346;-1.688;2023-04-12T00:21:11;5.20;99.90
28171;DHT22;15458;53.346;-1.688;2023-04-12T00:23:37;5.00;99.90
28171;DHT22;15458;53.346;-1.688;2023-04-12T00:26:03;5.00;99.90
28171;DHT22;15458;53.346;-1.688;2023-04-12T00:28:29;4.90;99.90
28171;DHT22;15458;53.346;-1.688;2023-04-12T00:30:55;4.90;99.90
28171;DHT22;15458;53.346;-1.688;2023-04-12T00:33:21;4.80;99.90
28171;DHT22;15458;53.346;-1.688;2023-04-12T00:35:46;4.80;99.90
28171;DHT22;15458;53.346;-1.688;2023-04-12T00:38:12;4.80;99.90
28171;DHT22;15458;53.346;-1.688;2023-04-12T00:40:40;4.80;99.90
28171;DHT22;15458;53.346;-1.688;2023-04-12T00:43:07;4.80;99.90
28171;DHT22;15458;53.346;-1.688;2023-04-12T00:45:33;4.70;99.90
28171;DHT22;15458;53.346;-1.688;2023-04-12T00:48:00;4.70;99.90
28171;DHT22;15458;53.346;-1.688;2023-04-12T00:50:26;4.70;99.90
28171;DHT22;15458;53.346;-1.688;2023-04-12T00:52:54;4.70;99.90
28171;DHT22;15458;53.346;-1.688;2023-04-12T00:55:23;4.80;99.90
28171;DHT22;15458;53.346;-1.688;2023-04-12T00:57:49;4.70;99.90
28171;DHT22;15458;53.346;-1.688;2023-04-12T01:00:16;4.70;99.90
28171;DHT22;15458;53.346;-1.688;2023-04-12T01:02:43;4.80;99.90
28171;DHT22;15458;53.346;-1.688;2023-04-12T01:05:12;4.70;99.90
28171;DHT22;15458;53.346;-1.688;2023-04-12T01:08:01;4.70;99.90
28171;DHT22;15458;53.346;-1.688;2023-04-12T01:15:49;4.60;99.90
28171;DHT22;15458;53.346;-1.688;2023-04-12T01:18:21;4.60;99.90
28171;DHT22;15458;53.346;-1.688;2023-04-12T01:21:02;4.60;99.90
28171;DHT22;15458;53.346;-1.688;2023-04-12T01:23:52;4.60;99.90
28171;DHT22;15458;53.346;-1.688;2023-04-12T01:26:44;4.50;99.90
28171;DHT22;15458;53.346;-1.688;2023-04-12T01:29:15;4.50;99.90
28171;DHT22;15458;53.346;-1.688;2023-04-12T01:31:59;4.50;99.90
28171;DHT22;15458;53.346;-1.688;2023-04-12T01:34:28;4.50;99.90
28171;DHT22;15458;53.346;-1.688;2023-04-12T01:36:54;4.40;99.90
28171;DHT22;15458;53.346;-1.688;2023-04-12T01:39:21;4.40;99.90
28171;DHT22;15458;53.346;-1.688;2023-04-12T01:41:47;4.40;99.90
28171;DHT22;15458;53.346;-1.688;2023-04-12T01:44:17;4.30;99.90
28171;DHT22;15458;53.346;-1.688;2023-04-12T01:46:44;4.30;99.90
28171;DHT22;15458;53.346;-1.688;2023-04-12T01:49:12;4.30;99.90
28171;DHT22;15458;53.346;-1.688;2023-04-12T01:51:49;4.30;99.90
28171;DHT22;15458;53.346;-1.688;2023-04-12T01:54:22;4.30;99.90
28171;DHT22;15458;53.346;-1.688;2023-04-12T01:56:54;4.30;99.90
28171;DHT22;15458;53.346;-1.688;2023-04-12T01:59:25;4.20;99.90
28171;DHT22;15458;53.346;-1.688;2023-04-12T02:01:51;4.20;99.90
28171;DHT22;15458;53.346;-1.688;2023-04-12T02:04:18;4.20;99.90
28171;DHT22;15458;53.346;-1.688;2023-04-12T02:06:46;4.20;99.90
28171;DHT22;15458;53.346;-1.688;2023-04-12T02:09:12;4.20;99.90
28171;DHT22;15458;53.346;-1.688;2023-04-12T02:11:38;4.20;99.90
28171;DHT22;15458;53.346;-1.688;2023-04-12T02:14:03;4.20;99.90
28171;DHT22;15458;53.346;-1.688;2023-04-12T02:16:30;4.20;99.90
28171;DHT22;15458;53.346;-1.688;2023-04-12T02:18:56;4.10;99.90
28171;DHT22;15458;53.346;-1.688;2023-04-12T02:21:23;4.10;99.90
28171;DHT22;15458;53.346;-1.688;2023-04-12T02:23:49;4.10;99.90
28171;DHT22;15458;53.346;-1.688;2023-04-12T02:26:15;4.10;99.90
28171;DHT22;15458;53.346;-1.688;2023-04-12T02:28:43;4.10;99.90
28171;DHT22;15458;53.346;-1.688;2023-04-12T02:31:08;4.00;99.90
28171;DHT22;15458;53.346;-1.688;2023-04-12T02:33:34;4.10;99.90
28171;DHT22;15458;53.346;-1.688;2023-04-12T02:36:00;4.00;99.90
28171;DHT22;15458;53.346;-1.688;2023-04-12T02:38:30;4.00;99.90
28171;DHT22;15458;53.346;-1.688;2023-04-12T02:40:56;4.00;99.90
28171;DHT22;15458;53.346;-1.688;2023-04-12T02:43:21;4.00;99.90
28171;DHT22;15458;53.346;-1.688;2023-04-12T02:45:47;4.00;99.90
28171;DHT22;15458;53.346;-1.688;2023-04-12T02:48:13;4.00;99.90
28171;DHT22;15458;53.346;-1.688;2023-04-12T02:50:39;4.00;99.90
28171;DHT22;15458;53.346;-1.688;2023-04-12T02:53:05;4.00;99.90
28171;DHT22;15458;53.346;-1.688;2023-04-12T02:55:31;3.90;99.90
28171;DHT22;15458;53.346;-1.688;2023-04-12T02:57:56;3.90;99.90
28171;DHT22;15458;53.346;-1.688;2023-04-12T03:00:22;3.90;99.90
28171;DHT22;15458;53.346;-1.688;2023-04-12T03:02:48;3.80;99.90
28171;DHT22;15458;53.346;-1.688;2023-04-12T03:05:16;3.80;99.90
28171;DHT22;15458;53.346;-1.688;2023-04-12T03:07:42;3.70;99.90
28171;DHT22;15458;53.346;-1.688;2023-04-12T03:10:09;3.70;99.90
28171;DHT22;15458;53.346;-1.688;2023-04-12T03:12:36;3.70;99.90
28171;DHT22;15458;53.346;-1.688;2023-04-12T03:15:03;3.70;99.90
28171;DHT22;15458;53.346;-1.688;2023-04-12T03:17:28;3.70;99.90
28171;DHT22;15458;53.346;-1.688;2023-04-12T03:19:54;3.60;99.90
28171;DHT22;15458;53.346;-1.688;2023-04-12T03:22:22;3.70;99.90
28171;DHT22;15458;53.346;-1.688;2023-04-12T03:24:49;3.70;99.90
28171;DHT22;15458;53.346;-1.688;2023-04-12T03:27:16;3.60;99.90
28171;DHT22;15458;53.346;-1.688;2023-04-12T03:29:41;3.60;99.90
28171;DHT22;15458;53.346;-1.688;2023-04-12T03:32:07;3.50;99.90
28171;DHT22;15458;53.346;-1.688;2023-04-12T03:34:33;3.50;99.90
28171;DHT22;15458;53.346;-1.688;2023-04-12T03:37:00;3.50;99.90
28171;DHT22;15458;53.346;-1.688;2023-04-12T03:39:26;3.50;99.90
28171;DHT22;15458;53.346;-1.688;2023-04-12T03:41:53;3.50;99.90
28171;DHT22;15458;53.346;-1.688;2023-04-12T03:44:19;3.40;99.90
28171;DHT22;15458;53.346;-1.688;2023-04-12T03:46:46;3.40;99.90
28171;DHT22;15458;53.346;-1.688;2023-04-12T03:49:13;3.40;99.90
28171;DHT22;15458;53.346;-1.688;2023-04-12T03:51:39;3.40;99.90
28171;DHT22;15458;53.346;-1.688;2023-04-12T03:54:11;3.40;99.90
28171;DHT22;15458;53.346;-1.688;2023-04-12T03:56:38;3.40;99.90
28171;DHT22;15458;53.346;-1.688;2023-04-12T03:59:07;3.40;99.90
28171;DHT22;15458;53.346;-1.688;2023-04-12T04:01:34;3.40;99.90
28171;DHT22;15458;53.346;-1.688;2023-04-12T04:04:00;3.30;99.90
28171;DHT22;15458;53.346;-1.688;2023-04-12T04:06:26;3.30;99.90
28171;DHT22;15458;53.346;-1.688;2023-04-12T04:08:57;3.30;99.90
28171;DHT22;15458;53.346;-1.688;2023-04-12T04:11:23;3.30;99.90
28171;DHT22;15458;53.346;-1.688;2023-04-12T04:13:49;3.20;99.90
28171;DHT22;15458;53.346;-1.688;2023-04-12T04:16:15;3.20;99.90
28171;DHT22;15458;53.346;-1.688;2023-04-12T04:18:42;3.20;99.90
28171;DHT22;15458;53.346;-1.688;2023-04-12T04:21:08;3.20;99.90
28171;DHT22;15458;53.346;-1.688;2023-04-12T04:23:33;3.20;99.90
28171;DHT22;15458;53.346;-1.688;2023-04-12T04:26:09;3.20;99.90
28171;DHT22;15458;53.346;-1.688;2023-04-12T04:28:36;3.20;99.90
28171;DHT22;15458;53.346;-1.688;2023-04-12T04:31:04;3.20;99.90
28171;DHT22;15458;53.346;-1.688;2023-04-12T04:33:31;3.10;99.90
28171;DHT22;15458;53.346;-1.688;2023-04-12T04:35:57;3.10;99.90
28171;DHT22;15458;53.346;-1.688;2023-04-12T04:38:23;3.20;99.90
28171;DHT22;15458;53.346;-1.688;2023-04-12T04:40:50;3.20;99.90
28171;DHT22;15458;53.346;-1.688;2023-04-12T04:43:20;3.10;99.90
28171;DHT22;15458;53.346;-1.688;2023-04-12T04:45:46;3.20;99.90
28171;DHT22;15458;53.346;-1.688;2023-04-12T04:48:15;3.20;99.90
28171;DHT22;15458;53.346;-1.688;2023-04-12T04:50:43;3.10;99.90
28171;DHT22;15458;53.346;-1.688;2023-04-12T04:53:09;3.10;99.90
28171;DHT22;15458;53.346;-1.688;2023-04-12T04:55:35;3.00;99.90
28171;DHT22;15458;53.346;-1.688;2023-04-12T04:58:00;3.00;99.90
28171;DHT22;15458;53.346;-1.688;2023-04-12T05:00:26;3.00;99.90
28171;DHT22;15458;53.346;-1.688;2023-04-12T05:02:52;2.90;99.90
28171;DHT22;15458;53.346;-1.688;2023-04-12T05:05:19;2.90;99.90
28171;DHT22;15458;53.346;-1.688;2023-04-12T05:07:50;2.90;99.90
28171;DHT22;15458;53.346;-1.688;2023-04-12T05:10:16;2.90;99.90
28171;DHT22;15458;53.346;-1.688;2023-04-12T05:12:42;2.90;99.90
28171;DHT22;15458;53.346;-1.688;2023-04-12T05:15:09;2.90;99.90
28171;DHT22;15458;53.346;-1.688;2023-04-12T05:17:35;2.90;99.90
28171;DHT22;15458;53.346;-1.688;2023-04-12T05:20:01;2.90;99.90
28171;DHT22;15458;53.346;-1.688;2023-04-12T05:22:34;2.90;99.90
28171;DHT22;15458;53.346;-1.688;2023-04-12T05:25:00;3.00;99.90
28171;DHT22;15458;53.346;-1.688;2023-04-12T05:27:28;2.90;99.90
28171;DHT22;15458;53.346;-1.688;2023-04-12T05:29:57;2.90;99.90
28171;DHT22;15458;53.346;-1.688;2023-04-12T05:32:24;2.90;99.90
28171;DHT22;15458;53.346;-1.688;2023-04-12T05:34:50;2.90;99.90
28171;DHT22;15458;53.346;-1.688;2023-04-12T05:37:18;2.90;99.90
28171;DHT22;15458;53.346;-1.688;2023-04-12T05:39:43;2.90;99.90
28171;DHT22;15458;53.346;-1.688;2023-04-12T05:42:09;2.90;99.90
28171;DHT22;15458;53.346;-1.688;2023-04-12T05:44:36;2.80;99.90
28171;DHT22;15458;53.346;-1.688;2023-04-12T05:47:03;2.90;99.90
28171;DHT22;15458;53.346;-1.688;2023-04-12T05:49:29;2.80;99.90
28171;DHT22;15458;53.346;-1.688;2023-04-12T05:51:58;2.80;99.90
28171;DHT22;15458;53.346;-1.688;2023-04-12T05:54:24;2.90;99.90
28171;DHT22;15458;53.346;-1.688;2023-04-12T05:56:50;2.90;99.90
28171;DHT22;15458;53.346;-1.688;2023-04-12T05:59:18;2.80;99.90
28171;DHT22;15458;53.346;-1.688;2023-04-12T06:01:44;2.80;99.90
28171;DHT22;15458;53.346;-1.688;2023-04-12T06:04:10;2.90;99.90
28171;DHT22;15458;53.346;-1.688;2023-04-12T06:06:36;2.90;99.90
28171;DHT22;15458;53.346;-1.688;2023-04-12T06:09:02;2.90;99.90
28171;DHT22;15458;53.346;-1.688;2023-04-12T06:11:30;3.00;99.90
28171;DHT22;15458;53.346;-1.688;2023-04-12T06:13:59;2.90;99.90
28171;DHT22;15458;53.346;-1.688;2023-04-12T06:16:25;3.00;99.90
28171;DHT22;15458;53.346;-1.688;2023-04-12T06:18:50;3.10;99.90
28171;DHT22;15458;53.346;-1.688;2023-04-12T06:21:17;3.10;99.90
28171;DHT22;15458;53.346;-1.688;2023-04-12T06:23:43;3.10;99.90
28171;DHT22;15458;53.346;-1.688;2023-04-12T06:26:09;3.20;99.90
28171;DHT22;15458;53.346;-1.688;2023-04-12T06:28:34;3.20;99.90
28171;DHT22;15458;53.346;-1.688;2023-04-12T06:31:01;3.30;99.90
28171;DHT22;15458;53.346;-1.688;2023-04-12T06:33:26;3.30;99.90
28171;DHT22;15458;53.346;-1.688;2023-04-12T06:35:52;3.40;99.90
28171;DHT22;15458;53.346;-1.688;2023-04-12T06:38:17;3.40;99.90
28171;DHT22;15458;53.346;-1.688;2023-04-12T06:40:43;3.40;99.90
28171;DHT22;15458;53.346;-1.688;2023-04-12T06:43:09;3.50;99.90
28171;DHT22;15458;53.346;-1.688;2023-04-12T06:45:35;3.50;99.90
28171;DHT22;15458;53.346;-1.688;2023-04-12T06:48:01;3.50;99.90
28171;DHT22;15458;53.346;-1.688;2023-04-12T06:50:26;3.50;99.90
28171;DHT22;15458;53.346;-1.688;2023-04-12T06:52:52;3.70;99.90
28171;DHT22;15458;53.346;-1.688;2023-04-12T06:55:18;3.70;99.90
28171;DHT22;15458;53.346;-1.688;2023-04-12T06:57:44;3.80;99.90
28171;DHT22;15458;53.346;-1.688;2023-04-12T07:00:11;3.90;99.90
28171;DHT22;15458;53.346;-1.688;2023-04-12T07:02:38;3.90;99.90
28171;DHT22;15458;53.346;-1.688;2023-04-12T07:05:07;3.90;99.90
28171;DHT22;15458;53.346;-1.688;2023-04-12T07:07:32;4.00;99.90
28171;DHT22;15458;53.346;-1.688;2023-04-12T07:09:58;4.00;99.90
28171;DHT22;15458;53.346;-1.688;2023-04-12T07:12:25;4.10;99.90
28171;DHT22;15458;53.346;-1.688;2023-04-12T07:14:50;4.20;99.90
28171;DHT22;15458;53.346;-1.688;2023-04-12T07:17:16;4.20;99.90
28171;DHT22;15458;53.346;-1.688;2023-04-12T07:19:41;4.20;99.90
28171;DHT22;15458;53.346;-1.688;2023-04-12T07:22:08;4.20;99.90
28171;DHT22;15458;53.346;-1.688;2023-04-12T07:24:34;4.20;99.90
28171;DHT22;15458;53.346;-1.688;2023-04-12T07:27:00;4.20;99.90
28171;DHT22;15458;53.346;-1.688;2023-04-12T07:29:26;4.30;99.90
28171;DHT22;15458;53.346;-1.688;2023-04-12T07:31:54;4.30;99.90
28171;DHT22;15458;53.346;-1.688;2023-04-12T07:34:20;4.40;99.90
28171;DHT22;15458;53.346;-1.688;2023-04-12T07:36:46;4.40;99.90
28171;DHT22;15458;53.346;-1.688;2023-04-12T07:39:11;4.50;99.90
28171;DHT22;15458;53.346;-1.688;2023-04-12T07:41:39;4.50;99.90
28171;DHT22;15458;53.346;-1.688;2023-04-12T07:44:07;4.60;99.90
28171;DHT22;15458;53.346;-1.688;2023-04-12T07:46:33;4.70;99.90
28171;DHT22;15458;53.346;-1.688;2023-04-12T07:48:59;4.80;99.90
28171;DHT22;15458;53.346;-1.688;2023-04-12T07:51:24;4.80;99.90
28171;DHT22;15458;53.346;-1.688;2023-04-12T07:53:51;4.90;99.90
28171;DHT22;15458;53.346;-1.688;2023-04-12T07:56:16;5.00;99.90
28171;DHT22;15458;53.346;-1.688;2023-04-12T07:58:42;5.00;99.90
28171;DHT22;15458;53.346;-1.688;2023-04-12T08:01:11;5.00;99.90
28171;DHT22;15458;53.346;-1.688;2023-04-12T08:03:38;5.00;99.90
28171;DHT22;15458;53.346;-1.688;2023-04-12T08:06:03;5.10;99.90
28171;DHT22;15458;53.346;-1.688;2023-04-12T08:08:30;5.20;99.90
28171;DHT22;15458;53.346;-1.688;2023-04-12T08:10:55;5.10;99.90
28171;DHT22;15458;53.346;-1.688;2023-04-12T08:13:21;5.20;99.90
28171;DHT22;15458;53.346;-1.688;2023-04-12T08:15:50;5.30;99.90
28171;DHT22;15458;53.346;-1.688;2023-04-12T08:18:15;5.40;99.90
28171;DHT22;15458;53.346;-1.688;2023-04-12T08:20:41;5.40;99.90
28171;DHT22;15458;53.346;-1.688;2023-04-12T08:23:09;5.50;99.90
28171;DHT22;15458;53.346;-1.688;2023-04-12T08:25:35;5.60;99.90
28171;DHT22;15458;53.346;-1.688;2023-04-12T08:28:01;5.60;99.90
28171;DHT22;15458;53.346;-1.688;2023-04-12T08:30:28;5.60;99.90
28171;DHT22;15458;53.346;-1.688;2023-04-12T08:32:54;5.60;99.90
28171;DHT22;15458;53.346;-1.688;2023-04-12T08:35:20;5.70;99.90
28171;DHT22;15458;53.346;-1.688;2023-04-12T08:37:47;5.80;99.90
28171;DHT22;15458;53.346;-1.688;2023-04-12T08:40:13;5.80;99.90
28171;DHT22;15458;53.346;-1.688;2023-04-12T08:42:39;5.80;99.90
28171;DHT22;15458;53.346;-1.688;2023-04-12T08:45:06;5.90;99.90
28171;DHT22;15458;53.346;-1.688;2023-04-12T08:47:34;6.00;99.90
28171;DHT22;15458;53.346;-1.688;2023-04-12T08:50:01;6.00;99.90
28171;DHT22;15458;53.346;-1.688;2023-04-12T08:52:28;6.00;99.90
28171;DHT22;15458;53.346;-1.688;2023-04-12T08:54:56;6.10;99.90
28171;DHT22;15458;53.346;-1.688;2023-04-12T08:57:22;6.20;99.90
28171;DHT22;15458;53.346;-1.688;2023-04-12T08:59:49;6.30;99.90
28171;DHT22;15458;53.346;-1.688;2023-04-12T09:02:16;6.30;99.90
28171;DHT22;15458;53.346;-1.688;2023-04-12T09:04:49;6.40;99.90
28171;DHT22;15458;53.346;-1.688;2023-04-12T09:07:15;6.50;99.90
28171;DHT22;15458;53.346;-1.688;2023-04-12T09:09:46;6.60;99.90
28171;DHT22;15458;53.346;-1.688;2023-04-12T09:12:12;6.70;99.90
28171;DHT22;15458;53.346;-1.688;2023-04-12T09:14:39;6.80;99.90
28171;DHT22;15458;53.346;-1.688;2023-04-12T09:17:25;6.90;99.90
28171;DHT22;15458;53.346;-1.688;2023-04-12T09:19:52;6.90;99.90
28171;DHT22;15458;53.346;-1.688;2023-04-12T09:22:32;7.00;99.90
28171;DHT22;15458;53.346;-1.688;2023-04-12T09:24:58;7.00;99.90
28171;DHT22;15458;53.346;-1.688;2023-04-12T09:27:24;7.10;99.90
28171;DHT22;15458;53.346;-1.688;2023-04-12T09:30:05;7.10;99.90
28171;DHT22;15458;53.346;-1.688;2023-04-12T09:32:31;7.10;99.90
28171;DHT22;15458;53.346;-1.688;2023-04-12T09:34:57;7.10;99.90
28171;DHT22;15458;53.346;-1.688;2023-04-12T09:37:25;7.20;99.90
28171;DHT22;15458;53.346;-1.688;2023-04-12T09:40:02;7.20;99.90
28171;DHT22;15458;53.346;-1.688;2023-04-12T09:42:29;7.10;99.90
28171;DHT22;15458;53.346;-1.688;2023-04-12T09:44:56;7.10;99.90
28171;DHT22;15458;53.346;-1.688;2023-04-12T09:47:42;7.10;99.90
28171;DHT22;15458;53.346;-1.688;2023-04-12T09:50:08;7.00;99.90
28171;DHT22;15458;53.346;-1.688;2023-04-12T09:52:44;7.00;99.90
28171;DHT22;15458;53.346;-1.688;2023-04-12T09:55:10;7.00;99.90
28171;DHT22;15458;53.346;-1.688;2023-04-12T09:57:41;6.90;99.90
28171;DHT22;15458;53.346;-1.688;2023-04-12T10:00:12;6.80;99.90
28171;DHT22;15458;53.346;-1.688;2023-04-12T10:02:50;6.70;99.90
28171;DHT22;15458;53.346;-1.688;2023-04-12T10:05:21;6.60;99.90
28171;DHT22;15458;53.346;-1.688;2023-04-12T10:07:47;6.60;99.90
28171;DHT22;15458;53.346;-1.688;2023-04-12T10:10:15;6.50;99.90
28171;DHT22;15458;53.346;-1.688;2023-04-12T10:12:42;6.40;99.90
28171;DHT22;15458;53.346;-1.688;2023-04-12T10:15:09;6.40;99.90
28171;DHT22;15458;53.346;-1.688;2023-04-12T10:17:49;6.40;99.90
28171;DHT22;15458;53.346;-1.688;2023-04-12T10:20:17;6.40;99.90
28171;DHT22;15458;53.346;-1.688;2023-04-12T10:22:51;6.30;99.90
28171;DHT22;15458;53.346;-1.688;2023-04-12T10:25:22;6.20;99.90
28171;DHT22;15458;53.346;-1.688;2023-04-12T10:27:48;6.10;99.90
28171;DHT22;15458;53.346;-1.688;2023-04-12T10:30:25;6.10;99.90
28171;DHT22;15458;53.346;-1.688;2023-04-12T10:35:47;5.90;99.90
28171;DHT22;15458;53.346;-1.688;2023-04-12T10:38:15;5.80;99.90
28171;DHT22;15458;53.346;-1.688;2023-04-12T10:41:07;5.70;99.90
28171;DHT22;15458;53.346;-1.688;2023-04-12T10:43:33;5.60;99.90
28171;DHT22;15458;53.346;-1.688;2023-04-12T10:45:59;5.60;99.90
28171;DHT22;15458;53.346;-1.688;2023-04-12T10:48:36;5.60;99.90
28171;DHT22;15458;53.346;-1.688;2023-04-12T10:51:21;5.50;99.90
28171;DHT22;15458;53.346;-1.688;2023-04-12T10:53:52;5.50;99.90
28171;DHT22;15458;53.346;-1.688;2023-04-12T10:59:03;5.70;99.90
28171;DHT22;15458;53.346;-1.688;2023-04-12T11:01:30;5.70;99.90
28171;DHT22;15458;53.346;-1.688;2023-04-12T11:04:16;5.70;99.90
28171;DHT22;15458;53.346;-1.688;2023-04-12T11:11:57;5.80;99.90
28171;DHT22;15458;53.346;-1.688;2023-04-12T11:14:44;5.80;99.90
28171;DHT22;15458;53.346;-1.688;2023-04-12T11:19:40;5.80;99.90
28171;DHT22;15458;53.346;-1.688;2023-04-12T11:22:09;5.80;99.90
28171;DHT22;15458;53.346;-1.688;2023-04-12T11:24:55;5.80;99.90
28171;DHT22;15458;53.346;-1.688;2023-04-12T11:27:22;5.70;99.90
28171;DHT22;15458;53.346;-1.688;2023-04-12T11:29:54;5.70;99.90
28171;DHT22;15458;53.346;-1.688;2023-04-12T11:32:25;5.70;99.90
28171;DHT22;15458;53.346;-1.688;2023-04-12T11:34:56;5.60;99.90
28171;DHT22;15458;53.346;-1.688;2023-04-12T11:37:23;5.60;99.90
28171;DHT22;15458;53.346;-1.688;2023-04-12T11:39:57;5.50;99.90
28171;DHT22;15458;53.346;-1.688;2023-04-12T11:42:26;5.50;99.90
28171;DHT22;15458;53.346;-1.688;2023-04-12T11:44:56;5.50;99.90
28171;DHT22;15458;53.346;-1.688;2023-04-12T11:47:24;5.60;99.90
28171;DHT22;15458;53.346;-1.688;2023-04-12T11:49:55;5.80;99.90
28171;DHT22;15458;53.346;-1.688;2023-04-12T11:52:30;5.90;99.90
28171;DHT22;15458;53.346;-1.688;2023-04-12T11:55:01;6.00;99.90
28171;DHT22;15458;53.346;-1.688;2023-04-12T11:57:29;6.10;99.90
28171;DHT22;15458;53.346;-1.688;2023-04-12T12:00:01;6.10;99.90
28171;DHT22;15458;53.346;-1.688;2023-04-12T12:02:32;6.10;99.90
28171;DHT22;15458;53.346;-1.688;2023-04-12T12:04:58;6.20;99.90
28171;DHT22;15458;53.346;-1.688;2023-04-12T12:07:24;6.20;99.90
28171;DHT22;15458;53.346;-1.688;2023-04-12T12:09:50;6.10;99.90
28171;DHT22;15458;53.346;-1.688;2023-04-12T12:12:17;6.10;99.90
28171;DHT22;15458;53.346;-1.688;2023-04-12T12:14:44;6.20;99.90
28171;DHT22;15458;53.346;-1.688;2023-04-12T12:17:14;6.20;99.90
28171;DHT22;15458;53.346;-1.688;2023-04-12T12:19:42;6.20;99.90
28171;DHT22;15458;53.346;-1.688;2023-04-12T12:22:18;6.20;99.90
28171;DHT22;15458;53.346;-1.688;2023-04-12T12:24:53;6.20;99.90
28171;DHT22;15458;53.346;-1.688;2023-04-12T12:29:54;6.40;99.90
28171;DHT22;15458;53.346;-1.688;2023-04-12T12:32:23;6.40;99.90
28171;DHT22;15458;53.346;-1.688;2023-04-12T12:34:52;6.40;99.90
28171;DHT22;15458;53.346;-1.688;2023-04-12T12:37:26;6.50;99.90
28171;DHT22;15458;53.346;-1.688;2023-04-12T12:40:11;6.50;99.90
28171;DHT22;15458;53.346;-1.688;2023-04-12T12:42:54;6.50;99.90
28171;DHT22;15458;53.346;-1.688;2023-04-12T12:45:21;6.50;99.90
28171;DHT22;15458;53.346;-1.688;2023-04-12T12:50:22;6.60;99.90
28171;DHT22;15458;53.346;-1.688;2023-04-12T12:52:49;6.60;99.90
28171;DHT22;15458;53.346;-1.688;2023-04-12T12:55:15;6.70;99.90
28171;DHT22;15458;53.346;-1.688;2023-04-12T12:57:42;6.80;99.90
28171;DHT22;15458;53.346;-1.688;2023-04-12T13:00:10;7.00;99.90
28171;DHT22;15458;53.346;-1.688;2023-04-12T13:02:37;7.10;99.90
28171;DHT22;15458;53.346;-1.688;2023-04-12T13:05:06;7.30;99.90
28171;DHT22;15458;53.346;-1.688;2023-04-12T13:07:32;7.50;99.90
28171;DHT22;15458;53.346;-1.688;2023-04-12T13:10:01;7.80;99.90
28171;DHT22;15458;53.346;-1.688;2023-04-12T13:12:35;7.90;99.90
28171;DHT22;15458;53.346;-1.688;2023-04-12T13:15:00;8.00;99.90
28171;DHT22;15458;53.346;-1.688;2023-04-12T13:17:27;8.00;99.90
28171;DHT22;15458;53.346;-1.688;2023-04-12T13:19:53;8.10;99.90
28171;DHT22;15458;53.346;-1.688;2023-04-12T13:22:19;8.10;99.90
28171;DHT22;15458;53.346;-1.688;2023-04-12T13:24:45;8.10;99.90
28171;DHT22;15458;53.346;-1.688;2023-04-12T13:27:12;8.10;99.90
28171;DHT22;15458;53.346;-1.688;2023-04-12T13:29:38;8.00;99.90
28171;DHT22;15458;53.346;-1.688;2023-04-12T13:32:04;7.90;99.90
28171;DHT22;15458;53.346;-1.688;2023-04-12T13:34:30;7.90;99.90
28171;DHT22;15458;53.346;-1.688;2023-04-12T13:36:56;7.90;99.90
28171;DHT22;15458;53.346;-1.688;2023-04-12T13:39:21;7.80;99.90
28171;DHT22;15458;53.346;-1.688;2023-04-12T13:41:47;7.70;99.90
28171;DHT22;15458;53.346;-1.688;2023-04-12T13:44:13;7.70;99.90
28171;DHT22;15458;53.346;-1.688;2023-04-12T13:46:38;7.60;99.90
28171;DHT22;15458;53.346;-1.688;2023-04-12T13:49:04;7.60;99.90
28171;DHT22;15458;53.346;-1.688;2023-04-12T13:51:30;7.60;99.90
28171;DHT22;15458;53.346;-1.688;2023-04-12T13:53:57;7.70;99.90
28171;DHT22;15458;53.346;-1.688;2023-04-12T13:56:25;7.70;99.90
28171;DHT22;15458;53.346;-1.688;2023-04-12T13:58:51;7.70;99.90
28171;DHT22;15458;53.346;-1.688;2023-04-12T14:01:17;7.80;99.90
28171;DHT22;15458;53.346;-1.688;2023-04-12T14:03:43;7.80;99.90
28171;DHT22;15458;53.346;-1.688;2023-04-12T14:06:09;7.80;99.90
28171;DHT22;15458;53.346;-1.688;2023-04-12T14:08:35;7.70;99.90
28171;DHT22;15458;53.346;-1.688;2023-04-12T14:11:02;7.70;99.90
28171;DHT22;15458;53.346;-1.688;2023-04-12T14:13:27;7.70;99.90
28171;DHT22;15458;53.346;-1.688;2023-04-12T14:15:53;7.60;99.90
28171;DHT22;15458;53.346;-1.688;2023-04-12T14:18:19;7.50;99.90
28171;DHT22;15458;53.346;-1.688;2023-04-12T14:20:51;7.40;99.90
28171;DHT22;15458;53.346;-1.688;2023-04-12T14:23:20;7.40;99.90
28171;DHT22;15458;53.346;-1.688;2023-04-12T14:25:47;7.40;99.90
28171;DHT22;15458;53.346;-1.688;2023-04-12T14:28:13;7.40;99.90
28171;DHT22;15458;53.346;-1.688;2023-04-12T14:30:45;7.30;99.90
28171;DHT22;15458;53.346;-1.688;2023-04-12T14:33:14;7.20;99.90
28171;DHT22;15458;53.346;-1.688;2023-04-12T14:35:43;7.20;99.90
28171;DHT22;15458;53.346;-1.688;2023-04-12T14:38:08;7.10;99.90
28171;DHT22;15458;53.346;-1.688;2023-04-12T14:40:35;7.10;99.90
28171;DHT22;15458;53.346;-1.688;2023-04-12T14:43:00;7.00;99.90
28171;DHT22;15458;53.346;-1.688;2023-04-12T14:45:27;7.00;99.90
28171;DHT22;15458;53.346;-1.688;2023-04-12T14:47:53;6.90;99.90
28171;DHT22;15458;53.346;-1.688;2023-04-12T14:50:19;6.80;99.90
28171;DHT22;15458;53.346;-1.688;2023-04-12T14:52:45;6.70;99.90
28171;DHT22;15458;53.346;-1.688;2023-04-12T14:55:11;6.70;99.90
28171;DHT22;15458;53.346;-1.688;2023-04-12T14:57:38;6.60;99.90
28171;DHT22;15458;53.346;-1.688;2023-04-12T15:00:05;6.50;99.90
28171;DHT22;15458;53.346;-1.688;2023-04-12T15:02:40;6.40;99.90
28171;DHT22;15458;53.346;-1.688;2023-04-12T15:05:07;6.40;99.90
28171;DHT22;15458;53.346;-1.688;2023-04-12T15:07:33;6.40;99.90
28171;DHT22;15458;53.346;-1.688;2023-04-12T15:09:59;6.30;99.90
28171;DHT22;15458;53.346;-1.688;2023-04-12T15:12:25;6.30;99.90
28171;DHT22;15458;53.346;-1.688;2023-04-12T15:14:52;6.20;99.90
28171;DHT22;15458;53.346;-1.688;2023-04-12T15:17:19;6.00;99.90
28171;DHT22;15458;53.346;-1.688;2023-04-12T15:19:45;6.00;99.90
28171;DHT22;15458;53.346;-1.688;2023-04-12T15:22:11;5.90;99.90
28171;DHT22;15458;53.346;-1.688;2023-04-12T15:24:37;5.90;99.90
28171;DHT22;15458;53.346;-1.688;2023-04-12T15:27:03;5.90;99.90
28171;DHT22;15458;53.346;-1.688;2023-04-12T15:29:29;6.00;99.90
28171;DHT22;15458;53.346;-1.688;2023-04-12T15:31:55;6.00;99.90
28171;DHT22;15458;53.346;-1.688;2023-04-12T15:34:21;6.20;99.90
28171;DHT22;15458;53.346;-1.688;2023-04-12T15:36:49;6.30;99.90
28171;DHT22;15458;53.346;-1.688;2023-04-12T15:39:17;6.40;99.90
28171;DHT22;15458;53.346;-1.688;2023-04-12T15:41:43;6.60;99.90
28171;DHT22;15458;53.346;-1.688;2023-04-12T15:44:12;6.60;99.90
28171;DHT22;15458;53.346;-1.688;2023-04-12T15:46:39;6.70;99.90
28171;DHT22;15458;53.346;-1.688;2023-04-12T15:49:09;6.70;99.90
28171;DHT22;15458;53.346;-1.688;2023-04-12T15:51:35;6.70;99.90
28171;DHT22;15458;53.346;-1.688;2023-04-12T15:54:01;6.80;99.90
28171;DHT22;15458;53.346;-1.688;2023-04-12T15:56:27;6.90;99.90
28171;DHT22;15458;53.346;-1.688;2023-04-12T15:58:54;6.90;99.90